sensor_id;sensor_type;location;lat;lon;timestamp;temperature;humidity
52413;DHT22;38339;53.234;6.578;2022-08-05T00:00:18;19.20;99.90
52413;DHT22;38339;53.234;6.578;2022-08-05T00:02:45;19.20;99.90
52413;DHT22;38339;53.234;6.578;2022-08-05T00:05:11;19.30;99.90
52413;DHT22;38339;53.234;6.578;2022-08-05T00:07:37;19.30;99.90
52413;DHT22;38339;53.234;6.578;2022-08-05T00:10:03;19.20;99.90
52413;DHT22;38339;53.234;6.578;2022-08-05T00:12:29;19.20;99.90
52413;DHT22;38339;53.234;6.578;2022-08-05T00:14:55;19.10;99.90
52413;DHT22;38339;53.234;6.578;2022-08-05T00:17:20;19.20;99.90
52413;DHT22;38339;53.234;6.578;2022-08-05T00:19:46;19.10;99.90
52413;DHT22;38339;53.234;6.578;2022-08-05T00:22:12;19.20;99.90
52413;DHT22;38339;53.234;6.578;2022-08-05T00:24:39;19.30;99.90
52413;DHT22;38339;53.234;6.578;2022-08-05T00:27:05;19.30;99.90
52413;DHT22;38339;53.234;6.578;2022-08-05T00:29:31;19.20;99.90
52413;DHT22;38339;53.234;6.578;2022-08-05T00:31:57;19.20;99.90
52413;DHT22;38339;53.234;6.578;2022-08-05T00:34:22;19.20;99.90
52413;DHT22;38339;53.234;6.578;2022-08-05T00:36:48;19.20;99.90
52413;DHT22;38339;53.234;6.578;2022-08-05T00:39:14;19.20;99.90
52413;DHT22;38339;53.234;6.578;2022-08-05T00:41:44;19.20;99.90
52413;DHT22;38339;53.234;6.578;2022-08-05T00:44:10;19.20;99.90
52413;DHT22;38339;53.234;6.578;2022-08-05T00:46:36;19.10;99.90
52413;DHT22;38339;53.234;6.578;2022-08-05T00:58:43;18.80;99.90
52413;DHT22;38339;53.234;6.578;2022-08-05T01:01:10;18.90;99.90
52413;DHT22;38339;53.234;6.578;2022-08-05T01:03:37;18.80;99.90
52413;DHT22;38339;53.234;6.578;2022-08-05T01:06:03;18.80;99.90
52413;DHT22;38339;53.234;6.578;2022-08-05T01:08:29;18.80;99.90
52413;DHT22;38339;53.234;6.578;2022-08-05T01:10:58;18.80;99.90
52413;DHT22;38339;53.234;6.578;2022-08-05T01:13:32;18.70;99.90
52413;DHT22;38339;53.234;6.578;2022-08-05T01:16:02;18.70;99.90
52413;DHT22;38339;53.234;6.578;2022-08-05T01:18:33;18.70;99.90
52413;DHT22;38339;53.234;6.578;2022-08-05T01:27:58;18.80;99.90
52413;DHT22;38339;53.234;6.578;2022-08-05T01:30:35;18.70;99.90
52413;DHT22;38339;53.234;6.578;2022-08-05T01:33:04;18.70;99.90
52413;DHT22;38339;53.234;6.578;2022-08-05T01:35:33;18.80;99.90
52413;DHT22;38339;53.234;6.578;2022-08-05T01:38:00;18.70;99.90
52413;DHT22;38339;53.234;6.578;2022-08-05T01:40:29;18.70;99.90
52413;DHT22;38339;53.234;6.578;2022-08-05T01:42:56;18.70;99.90
52413;DHT22;38339;53.234;6.578;2022-08-05T01:45:23;18.80;99.90
52413;DHT22;38339;53.234;6.578;2022-08-05T01:47:52;18.80;99.90
52413;DHT22;38339;53.234;6.578;2022-08-05T01:50:24;18.80;99.90
52413;DHT22;38339;53.234;6.578;2022-08-05T01:52:53;18.80;99.90
52413;DHT22;38339;53.234;6.578;2022-08-05T01:55:22;18.80;99.90
52413;DHT22;38339;53.234;6.578;2022-08-05T01:57:51;18.80;99.90
52413;DHT22;38339;53.234;6.578;2022-08-05T02:00:17;18.80;99.90
52413;DHT22;38339;53.234;6.578;2022-08-05T02:03:12;18.70;99.90
52413;DHT22;38339;53.234;6.578;2022-08-05T02:05:40;18.60;99.90
52413;DHT22;38339;53.234;6.578;2022-08-05T02:08:11;18.50;99.90
52413;DHT22;38339;53.234;6.578;2022-08-05T02:10:50;18.50;99.90
52413;DHT22;38339;53.234;6.578;2022-08-05T02:16:10;18.40;99.90
52413;DHT22;38339;53.234;6.578;2022-08-05T02:18:47;18.40;99.90
52413;DHT22;38339;53.234;6.578;2022-08-05T02:21:20;18.30;99.90
52413;DHT22;38339;53.234;6.578;2022-08-05T02:23:51;18.40;99.90
52413;DHT22;38339;53.234;6.578;2022-08-05T02:26:28;18.40;99.90
52413;DHT22;38339;53.234;6.578;2022-08-05T02:28:58;18.40;99.90
52413;DHT22;38339;53.234;6.578;2022-08-05T02:31:29;18.40;99.90
52413;DHT22;38339;53.234;6.578;2022-08-05T02:34:00;18.40;99.90
52413;DHT22;38339;53.234;6.578;2022-08-05T02:36:27;18.40;99.90
52413;DHT22;38339;53.234;6.578;2022-08-05T02:38:54;18.40;99.90
52413;DHT22;38339;53.234;6.578;2022-08-05T02:41:23;18.40;99.90
52413;DHT22;38339;53.234;6.578;2022-08-05T02:43:50;18.40;99.90
52413;DHT22;38339;53.234;6.578;2022-08-05T02:46:17;18.40;99.90
52413;DHT22;38339;53.234;6.578;2022-08-05T02:48:45;18.50;99.90
52413;DHT22;38339;53.234;6.578;2022-08-05T02:51:13;18.50;99.90
52413;DHT22;38339;53.234;6.578;2022-08-05T02:53:40;18.50;99.90
52413;DHT22;38339;53.234;6.578;2022-08-05T02:56:08;18.50;99.90
52413;DHT22;38339;53.234;6.578;2022-08-05T02:58:37;18.60;99.90
52413;DHT22;38339;53.234;6.578;2022-08-05T03:01:04;18.60;99.90
52413;DHT22;38339;53.234;6.578;2022-08-05T03:03:31;18.60;99.90
52413;DHT22;38339;53.234;6.578;2022-08-05T03:05:58;18.60;99.90
52413;DHT22;38339;53.234;6.578;2022-08-05T03:08:24;18.60;99.90
52413;DHT22;38339;53.234;6.578;2022-08-05T03:10:50;18.60;99.90
52413;DHT22;38339;53.234;6.578;2022-08-05T03:13:16;18.50;99.90
52413;DHT22;38339;53.234;6.578;2022-08-05T03:15:46;18.50;99.90
52413;DHT22;38339;53.234;6.578;2022-08-05T03:18:13;18.50;99.90
52413;DHT22;38339;53.234;6.578;2022-08-05T03:20:39;18.50;99.90
52413;DHT22;38339;53.234;6.578;2022-08-05T03:23:07;18.50;99.90
52413;DHT22;38339;53.234;6.578;2022-08-05T03:25:34;18.50;99.90
52413;DHT22;38339;53.234;6.578;2022-08-05T03:28:02;18.50;99.90
52413;DHT22;38339;53.234;6.578;2022-08-05T03:30:29;18.50;99.90
52413;DHT22;38339;53.234;6.578;2022-08-05T03:32:58;18.50;99.90
52413;DHT22;38339;53.234;6.578;2022-08-05T03:35:25;18.40;99.90
52413;DHT22;38339;53.234;6.578;2022-08-05T03:37:56;18.40;99.90
52413;DHT22;38339;53.234;6.578;2022-08-05T03:40:22;18.40;99.90
52413;DHT22;38339;53.234;6.578;2022-08-05T03:42:48;18.30;99.90
52413;DHT22;38339;53.234;6.578;2022-08-05T03:45:14;18.30;99.90
52413;DHT22;38339;53.234;6.578;2022-08-05T03:47:39;18.30;99.90
52413;DHT22;38339;53.234;6.578;2022-08-05T03:50:05;18.30;99.90
52413;DHT22;38339;53.234;6.578;2022-08-05T03:52:34;18.30;99.90
52413;DHT22;38339;53.234;6.578;2022-08-05T03:55:07;18.30;99.90
52413;DHT22;38339;53.234;6.578;2022-08-05T03:57:37;18.20;99.90
52413;DHT22;38339;53.234;6.578;2022-08-05T04:00:08;18.30;99.90
52413;DHT22;38339;53.234;6.578;2022-08-05T04:02:36;18.30;99.90
52413;DHT22;38339;53.234;6.578;2022-08-05T04:05:03;18.20;99.90
52413;DHT22;38339;53.234;6.578;2022-08-05T04:07:30;18.30;99.90
52413;DHT22;38339;53.234;6.578;2022-08-05T04:09:57;18.30;99.90
52413;DHT22;38339;53.234;6.578;2022-08-05T04:12:23;18.30;99.90
52413;DHT22;38339;53.234;6.578;2022-08-05T04:14:49;18.30;99.90
52413;DHT22;38339;53.234;6.578;2022-08-05T04:17:15;18.30;99.90
52413;DHT22;38339;53.234;6.578;2022-08-05T04:19:43;18.30;99.90
52413;DHT22;38339;53.234;6.578;2022-08-05T04:22:09;18.30;99.90
52413;DHT22;38339;53.234;6.578;2022-08-05T04:24:40;18.30;99.90
52413;DHT22;38339;53.234;6.578;2022-08-05T04:27:05;18.30;99.90
52413;DHT22;38339;53.234;6.578;2022-08-05T04:29:31;18.30;99.90
52413;DHT22;38339;53.234;6.578;2022-08-05T04:31:57;18.20;99.90
52413;DHT22;38339;53.234;6.578;2022-08-05T04:34:22;18.20;99.90
52413;DHT22;38339;53.234;6.578;2022-08-05T04:36:48;18.20;99.90
52413;DHT22;38339;53.234;6.578;2022-08-05T04:39:14;18.20;99.90
52413;DHT22;38339;53.234;6.578;2022-08-05T04:41:39;18.20;99.90
52413;DHT22;38339;53.234;6.578;2022-08-05T04:44:05;18.20;99.90
52413;DHT22;38339;53.234;6.578;2022-08-05T04:46:31;18.30;99.90
52413;DHT22;38339;53.234;6.578;2022-08-05T04:48:57;18.20;99.90
52413;DHT22;38339;53.234;6.578;2022-08-05T04:51:22;18.30;99.90
52413;DHT22;38339;53.234;6.578;2022-08-05T04:53:48;18.30;99.90
52413;DHT22;38339;53.234;6.578;2022-08-05T04:56:14;18.30;99.90
52413;DHT22;38339;53.234;6.578;2022-08-05T04:58:40;18.30;99.90
52413;DHT22;38339;53.234;6.578;2022-08-05T05:01:06;18.40;99.90
52413;DHT22;38339;53.234;6.578;2022-08-05T05:03:32;18.40;99.90
52413;DHT22;38339;53.234;6.578;2022-08-05T05:05:57;18.30;99.90
52413;DHT22;38339;53.234;6.578;2022-08-05T05:08:23;18.20;99.90
52413;DHT22;38339;53.234;6.578;2022-08-05T05:10:49;18.20;99.90
52413;DHT22;38339;53.234;6.578;2022-08-05T05:13:16;18.20;99.90
52413;DHT22;38339;53.234;6.578;2022-08-05T05:15:43;18.20;99.90
52413;DHT22;38339;53.234;6.578;2022-08-05T05:18:11;18.20;99.90
52413;DHT22;38339;53.234;6.578;2022-08-05T05:20:37;18.10;99.90
52413;DHT22;38339;53.234;6.578;2022-08-05T05:23:03;18.10;99.90
52413;DHT22;38339;53.234;6.578;2022-08-05T05:25:29;18.10;99.90
52413;DHT22;38339;53.234;6.578;2022-08-05T05:27:55;18.10;99.90
52413;DHT22;38339;53.234;6.578;2022-08-05T05:30:21;18.10;99.90
52413;DHT22;38339;53.234;6.578;2022-08-05T05:32:47;18.10;99.90
52413;DHT22;38339;53.234;6.578;2022-08-05T05:35:13;18.10;99.90
52413;DHT22;38339;53.234;6.578;2022-08-05T05:38:05;18.00;99.90
52413;DHT22;38339;53.234;6.578;2022-08-05T05:40:32;18.00;99.90
52413;DHT22;38339;53.234;6.578;2022-08-05T05:42:58;17.90;99.90
52413;DHT22;38339;53.234;6.578;2022-08-05T05:45:24;17.90;99.90
52413;DHT22;38339;53.234;6.578;2022-08-05T05:47:50;17.90;99.90
52413;DHT22;38339;53.234;6.578;2022-08-05T05:50:17;17.90;99.90
52413;DHT22;38339;53.234;6.578;2022-08-05T05:52:44;17.90;99.90
52413;DHT22;38339;53.234;6.578;2022-08-05T05:55:13;17.80;99.90
52413;DHT22;38339;53.234;6.578;2022-08-05T05:57:40;17.80;99.90
52413;DHT22;38339;53.234;6.578;2022-08-05T06:00:08;17.80;99.90
52413;DHT22;38339;53.234;6.578;2022-08-05T06:02:34;17.80;99.90
52413;DHT22;38339;53.234;6.578;2022-08-05T06:04:59;17.80;99.90
52413;DHT22;38339;53.234;6.578;2022-08-05T06:07:25;17.90;99.90
52413;DHT22;38339;53.234;6.578;2022-08-05T06:09:51;17.90;99.90
52413;DHT22;38339;53.234;6.578;2022-08-05T06:12:17;17.90;99.90
52413;DHT22;38339;53.234;6.578;2022-08-05T06:14:42;18.00;99.90
52413;DHT22;38339;53.234;6.578;2022-08-05T06:17:10;18.00;99.90
52413;DHT22;38339;53.234;6.578;2022-08-05T06:19:36;18.00;99.90
52413;DHT22;38339;53.234;6.578;2022-08-05T06:22:02;18.00;99.90
52413;DHT22;38339;53.234;6.578;2022-08-05T06:24:28;18.00;99.90
52413;DHT22;38339;53.234;6.578;2022-08-05T06:26:54;18.10;99.90
52413;DHT22;38339;53.234;6.578;2022-08-05T06:29:20;18.10;99.90
52413;DHT22;38339;53.234;6.578;2022-08-05T06:31:46;18.10;99.90
52413;DHT22;38339;53.234;6.578;2022-08-05T06:34:12;18.20;99.90
52413;DHT22;38339;53.234;6.578;2022-08-05T06:36:37;18.30;99.90
52413;DHT22;38339;53.234;6.578;2022-08-05T06:39:03;18.40;99.90
52413;DHT22;38339;53.234;6.578;2022-08-05T06:41:29;18.40;99.90
52413;DHT22;38339;53.234;6.578;2022-08-05T06:43:54;18.40;99.90
52413;DHT22;38339;53.234;6.578;2022-08-05T06:46:20;18.50;99.90
52413;DHT22;38339;53.234;6.578;2022-08-05T06:48:46;18.50;99.90
52413;DHT22;38339;53.234;6.578;2022-08-05T06:51:11;18.50;99.90
52413;DHT22;38339;53.234;6.578;2022-08-05T06:53:37;18.60;99.90
52413;DHT22;38339;53.234;6.578;2022-08-05T06:56:03;18.60;99.90
52413;DHT22;38339;53.234;6.578;2022-08-05T06:58:30;18.60;99.90
52413;DHT22;38339;53.234;6.578;2022-08-05T07:01:15;18.60;99.90
52413;DHT22;38339;53.234;6.578;2022-08-05T07:03:40;18.60;99.90
52413;DHT22;38339;53.234;6.578;2022-08-05T07:06:06;18.60;99.90
52413;DHT22;38339;53.234;6.578;2022-08-05T07:08:32;18.60;99.90
52413;DHT22;38339;53.234;6.578;2022-08-05T07:10:57;18.70;99.90
52413;DHT22;38339;53.234;6.578;2022-08-05T07:13:24;18.70;99.90
52413;DHT22;38339;53.234;6.578;2022-08-05T07:16:08;18.80;99.90
52413;DHT22;38339;53.234;6.578;2022-08-05T07:18:52;18.90;99.90
52413;DHT22;38339;53.234;6.578;2022-08-05T07:21:18;18.90;99.90
52413;DHT22;38339;53.234;6.578;2022-08-05T07:23:44;19.00;99.90
52413;DHT22;38339;53.234;6.578;2022-08-05T07:26:10;19.10;99.90
52413;DHT22;38339;53.234;6.578;2022-08-05T07:28:35;19.20;99.90
52413;DHT22;38339;53.234;6.578;2022-08-05T07:31:01;19.20;99.90
52413;DHT22;38339;53.234;6.578;2022-08-05T07:33:27;19.30;99.90
52413;DHT22;38339;53.234;6.578;2022-08-05T07:35:52;19.40;99.90
52413;DHT22;38339;53.234;6.578;2022-08-05T07:38:18;19.50;99.90
52413;DHT22;38339;53.234;6.578;2022-08-05T07:40:44;19.40;99.90
52413;DHT22;38339;53.234;6.578;2022-08-05T07:43:11;19.40;99.90
52413;DHT22;38339;53.234;6.578;2022-08-05T07:45:39;19.40;99.90
52413;DHT22;38339;53.234;6.578;2022-08-05T07:48:05;19.50;99.90
52413;DHT22;38339;53.234;6.578;2022-08-05T07:50:30;19.40;99.90
52413;DHT22;38339;53.234;6.578;2022-08-05T07:52:56;19.50;99.90
52413;DHT22;38339;53.234;6.578;2022-08-05T07:55:22;19.50;99.90
52413;DHT22;38339;53.234;6.578;2022-08-05T07:57:47;19.60;99.90
52413;DHT22;38339;53.234;6.578;2022-08-05T08:00:13;19.70;99.90
52413;DHT22;38339;53.234;6.578;2022-08-05T08:02:39;19.80;99.90
52413;DHT22;38339;53.234;6.578;2022-08-05T08:05:05;19.90;99.90
52413;DHT22;38339;53.234;6.578;2022-08-05T08:07:31;20.00;99.90
52413;DHT22;38339;53.234;6.578;2022-08-05T08:09:57;20.00;99.90
52413;DHT22;38339;53.234;6.578;2022-08-05T08:12:23;20.00;99.90
52413;DHT22;38339;53.234;6.578;2022-08-05T08:14:49;20.10;99.90
52413;DHT22;38339;53.234;6.578;2022-08-05T08:17:15;20.20;99.90
52413;DHT22;38339;53.234;6.578;2022-08-05T08:19:42;20.20;99.90
52413;DHT22;38339;53.234;6.578;2022-08-05T08:22:08;20.30;99.90
52413;DHT22;38339;53.234;6.578;2022-08-05T08:24:34;20.30;99.90
52413;DHT22;38339;53.234;6.578;2022-08-05T08:27:00;20.30;99.90
52413;DHT22;38339;53.234;6.578;2022-08-05T08:29:26;20.40;99.90
52413;DHT22;38339;53.234;6.578;2022-08-05T08:31:52;20.40;99.90
52413;DHT22;38339;53.234;6.578;2022-08-05T08:34:23;20.40;99.90
52413;DHT22;38339;53.234;6.578;2022-08-05T08:36:49;20.20;99.90
52413;DHT22;38339;53.234;6.578;2022-08-05T08:39:15;19.90;99.90
52413;DHT22;38339;53.234;6.578;2022-08-05T08:41:47;19.80;99.90
52413;DHT22;38339;53.234;6.578;2022-08-05T08:44:18;19.70;99.90
52413;DHT22;38339;53.234;6.578;2022-08-05T08:46:46;19.80;99.90
52413;DHT22;38339;53.234;6.578;2022-08-05T08:49:18;19.90;99.90
52413;DHT22;38339;53.234;6.578;2022-08-05T08:51:48;19.90;99.90
52413;DHT22;38339;53.234;6.578;2022-08-05T08:54:19;19.90;99.90
52413;DHT22;38339;53.234;6.578;2022-08-05T08:56:45;19.90;99.90
52413;DHT22;38339;53.234;6.578;2022-08-05T08:59:11;19.90;99.90
52413;DHT22;38339;53.234;6.578;2022-08-05T09:01:36;19.90;99.90
52413;DHT22;38339;53.234;6.578;2022-08-05T09:04:02;20.00;99.90
52413;DHT22;38339;53.234;6.578;2022-08-05T09:06:29;20.10;99.90
52413;DHT22;38339;53.234;6.578;2022-08-05T09:08:57;20.10;99.90
52413;DHT22;38339;53.234;6.578;2022-08-05T09:11:23;20.10;99.90
52413;DHT22;38339;53.234;6.578;2022-08-05T09:13:49;20.20;99.90
52413;DHT22;38339;53.234;6.578;2022-08-05T09:16:15;20.30;99.90
52413;DHT22;38339;53.234;6.578;2022-08-05T09:18:41;20.30;99.90
52413;DHT22;38339;53.234;6.578;2022-08-05T09:21:08;20.20;99.90
52413;DHT22;38339;53.234;6.578;2022-08-05T09:23:34;20.10;99.90
52413;DHT22;38339;53.234;6.578;2022-08-05T09:26:19;20.10;99.90
52413;DHT22;38339;53.234;6.578;2022-08-05T09:28:46;20.10;99.90
52413;DHT22;38339;53.234;6.578;2022-08-05T09:31:14;20.10;99.90
52413;DHT22;38339;53.234;6.578;2022-08-05T09:36:17;20.00;99.90
52413;DHT22;38339;53.234;6.578;2022-08-05T09:38:59;20.10;99.90
52413;DHT22;38339;53.234;6.578;2022-08-05T09:41:26;20.10;99.90
52413;DHT22;38339;53.234;6.578;2022-08-05T09:43:52;20.10;99.90
52413;DHT22;38339;53.234;6.578;2022-08-05T09:46:29;20.10;99.90
52413;DHT22;38339;53.234;6.578;2022-08-05T09:49:00;20.10;99.90
52413;DHT22;38339;53.234;6.578;2022-08-05T09:51:34;20.10;99.90
52413;DHT22;38339;53.234;6.578;2022-08-05T09:54:00;20.10;99.90
52413;DHT22;38339;53.234;6.578;2022-08-05T09:56:33;20.10;99.90
52413;DHT22;38339;53.234;6.578;2022-08-05T09:59:04;20.00;99.90
52413;DHT22;38339;53.234;6.578;2022-08-05T10:01:31;19.90;99.90
52413;DHT22;38339;53.234;6.578;2022-08-05T10:04:09;19.90;99.90
52413;DHT22;38339;53.234;6.578;2022-08-05T10:06:52;20.00;99.90
52413;DHT22;38339;53.234;6.578;2022-08-05T10:09:19;20.00;99.90
52413;DHT22;38339;53.234;6.578;2022-08-05T10:11:46;20.00;99.90
52413;DHT22;38339;53.234;6.578;2022-08-05T10:14:25;20.00;99.90
52413;DHT22;38339;53.234;6.578;2022-08-05T10:16:52;20.10;99.90
52413;DHT22;38339;53.234;6.578;2022-08-05T10:19:25;20.10;99.90
52413;DHT22;38339;53.234;6.578;2022-08-05T10:21:51;20.20;99.90
52413;DHT22;38339;53.234;6.578;2022-08-05T10:24:18;20.10;99.90
52413;DHT22;38339;53.234;6.578;2022-08-05T10:26:45;20.00;99.40
52413;DHT22;38339;53.234;6.578;2022-08-05T10:29:14;20.00;97.40
52413;DHT22;38339;53.234;6.578;2022-08-05T10:31:40;20.00;95.70
52413;DHT22;38339;53.234;6.578;2022-08-05T10:34:08;20.10;96.10
52413;DHT22;38339;53.234;6.578;2022-08-05T10:36:39;20.20;95.20
52413;DHT22;38339;53.234;6.578;2022-08-05T10:39:13;20.20;95.10
52413;DHT22;38339;53.234;6.578;2022-08-05T10:41:46;20.30;93.40
52413;DHT22;38339;53.234;6.578;2022-08-05T10:44:18;20.40;92.80
52413;DHT22;38339;53.234;6.578;2022-08-05T10:46:53;20.50;93.10
52413;DHT22;38339;53.234;6.578;2022-08-05T10:49:20;20.60;93.50
52413;DHT22;38339;53.234;6.578;2022-08-05T10:51:51;20.60;94.10
52413;DHT22;38339;53.234;6.578;2022-08-05T10:55:01;20.60;93.90
52413;DHT22;38339;53.234;6.578;2022-08-05T10:57:28;20.60;93.80
52413;DHT22;38339;53.234;6.578;2022-08-05T11:00:14;20.60;94.00
52413;DHT22;38339;53.234;6.578;2022-08-05T11:03:08;20.60;94.20
52413;DHT22;38339;53.234;6.578;2022-08-05T11:05:35;20.60;95.80
52413;DHT22;38339;53.234;6.578;2022-08-05T11:08:04;20.60;95.20
52413;DHT22;38339;53.234;6.578;2022-08-05T11:10:31;20.40;94.00
52413;DHT22;38339;53.234;6.578;2022-08-05T11:12:58;20.40;94.70
52413;DHT22;38339;53.234;6.578;2022-08-05T11:15:29;20.50;93.10
52413;DHT22;38339;53.234;6.578;2022-08-05T11:20:46;20.50;94.00
52413;DHT22;38339;53.234;6.578;2022-08-05T11:33:27;20.40;94.40
52413;DHT22;38339;53.234;6.578;2022-08-05T11:35:56;20.40;93.70
52413;DHT22;38339;53.234;6.578;2022-08-05T11:41:05;20.10;96.90
52413;DHT22;38339;53.234;6.578;2022-08-05T11:43:32;20.00;96.30
52413;DHT22;38339;53.234;6.578;2022-08-05T11:45:59;20.00;96.80
52413;DHT22;38339;53.234;6.578;2022-08-05T11:48:26;20.00;96.10
52413;DHT22;38339;53.234;6.578;2022-08-05T11:50:53;20.00;96.80
52413;DHT22;38339;53.234;6.578;2022-08-05T11:53:20;20.10;97.50
52413;DHT22;38339;53.234;6.578;2022-08-05T11:58:37;20.10;97.40
52413;DHT22;38339;53.234;6.578;2022-08-05T12:01:24;20.10;97.80
52413;DHT22;38339;53.234;6.578;2022-08-05T12:03:50;20.00;98.70
52413;DHT22;38339;53.234;6.578;2022-08-05T12:06:25;20.00;98.30
52413;DHT22;38339;53.234;6.578;2022-08-05T12:08:55;19.90;98.60
52413;DHT22;38339;53.234;6.578;2022-08-05T12:11:25;19.90;99.40
52413;DHT22;38339;53.234;6.578;2022-08-05T12:16:19;19.70;99.20
52413;DHT22;38339;53.234;6.578;2022-08-05T12:18:45;19.50;99.10
52413;DHT22;38339;53.234;6.578;2022-08-05T12:21:13;19.40;99.90
52413;DHT22;38339;53.234;6.578;2022-08-05T12:23:40;19.30;99.00
52413;DHT22;38339;53.234;6.578;2022-08-05T12:26:15;19.40;98.70
52413;DHT22;38339;53.234;6.578;2022-08-05T12:28:41;19.50;98.20
52413;DHT22;38339;53.234;6.578;2022-08-05T12:31:07;19.50;98.10
52413;DHT22;38339;53.234;6.578;2022-08-05T12:33:33;19.60;97.00
52413;DHT22;38339;53.234;6.578;2022-08-05T12:36:00;19.60;96.70
52413;DHT22;38339;53.234;6.578;2022-08-05T12:38:26;19.60;97.60
52413;DHT22;38339;53.234;6.578;2022-08-05T12:40:52;19.70;97.20
52413;DHT22;38339;53.234;6.578;2022-08-05T12:43:20;19.90;96.60
52413;DHT22;38339;53.234;6.578;2022-08-05T12:45:50;20.00;96.40
52413;DHT22;38339;53.234;6.578;2022-08-05T12:48:16;20.00;96.80
52413;DHT22;38339;53.234;6.578;2022-08-05T12:50:41;20.00;97.00
52413;DHT22;38339;53.234;6.578;2022-08-05T12:53:07;20.00;97.40
52413;DHT22;38339;53.234;6.578;2022-08-05T12:55:39;19.90;97.50
52413;DHT22;38339;53.234;6.578;2022-08-05T12:58:05;19.80;97.50
52413;DHT22;38339;53.234;6.578;2022-08-05T13:00:31;19.90;98.10
52413;DHT22;38339;53.234;6.578;2022-08-05T13:03:00;19.90;97.60
52413;DHT22;38339;53.234;6.578;2022-08-05T13:05:25;19.80;97.20
52413;DHT22;38339;53.234;6.578;2022-08-05T13:07:56;19.70;97.80
52413;DHT22;38339;53.234;6.578;2022-08-05T13:10:22;19.60;98.60
52413;DHT22;38339;53.234;6.578;2022-08-05T13:12:48;19.40;98.90
52413;DHT22;38339;53.234;6.578;2022-08-05T13:15:14;19.30;99.30
52413;DHT22;38339;53.234;6.578;2022-08-05T13:17:40;19.20;99.50
52413;DHT22;38339;53.234;6.578;2022-08-05T13:20:17;19.20;99.50
52413;DHT22;38339;53.234;6.578;2022-08-05T13:22:51;19.10;99.80
52413;DHT22;38339;53.234;6.578;2022-08-05T13:25:19;19.10;99.90
52413;DHT22;38339;53.234;6.578;2022-08-05T13:27:50;19.00;99.90
52413;DHT22;38339;53.234;6.578;2022-08-05T13:30:18;19.00;99.90
52413;DHT22;38339;53.234;6.578;2022-08-05T13:32:45;19.10;98.90
52413;DHT22;38339;53.234;6.578;2022-08-05T13:35:15;19.10;98.90
52413;DHT22;38339;53.234;6.578;2022-08-05T13:37:41;19.20;97.40
52413;DHT22;38339;53.234;6.578;2022-08-05T13:40:07;19.20;98.00
52413;DHT22;38339;53.234;6.578;2022-08-05T13:42:34;19.40;98.20
52413;DHT22;38339;53.234;6.578;2022-08-05T13:45:00;19.50;98.10
52413;DHT22;38339;53.234;6.578;2022-08-05T13:47:26;19.70;98.60
52413;DHT22;38339;53.234;6.578;2022-08-05T13:49:52;19.90;97.20
52413;DHT22;38339;53.234;6.578;2022-08-05T13:52:20;19.90;97.10
52413;DHT22;38339;53.234;6.578;2022-08-05T13:54:46;19.90;97.10
52413;DHT22;38339;53.234;6.578;2022-08-05T13:57:12;19.90;96.90
52413;DHT22;38339;53.234;6.578;2022-08-05T13:59:39;19.80;96.10
52413;DHT22;38339;53.234;6.578;2022-08-05T14:02:06;19.80;96.30
52413;DHT22;38339;53.234;6.578;2022-08-05T14:04:42;19.90;96.20
52413;DHT22;38339;53.234;6.578;2022-08-05T14:07:28;19.90;97.60
52413;DHT22;38339;53.234;6.578;2022-08-05T14:09:54;19.60;99.30
52413;DHT22;38339;53.234;6.578;2022-08-05T14:12:20;19.50;99.80
52413;DHT22;38339;53.234;6.578;2022-08-05T14:14:46;19.30;99.80
52413;DHT22;38339;53.234;6.578;2022-08-05T14:17:12;19.30;99.90
52413;DHT22;38339;53.234;6.578;2022-08-05T14:19:40;19.40;99.90
52413;DHT22;38339;53.234;6.578;2022-08-05T14:22:05;19.50;99.90
52413;DHT22;38339;53.234;6.578;2022-08-05T14:24:31;19.60;99.90
52413;DHT22;38339;53.234;6.578;2022-08-05T14:26:57;19.70;99.90
52413;DHT22;38339;53.234;6.578;2022-08-05T14:29:23;19.70;99.20
52413;DHT22;38339;53.234;6.578;2022-08-05T14:31:48;19.50;99.30
52413;DHT22;38339;53.234;6.578;2022-08-05T14:34:14;19.40;99.10
52413;DHT22;38339;53.234;6.578;2022-08-05T14:36:40;19.30;98.90
52413;DHT22;38339;53.234;6.578;2022-08-05T14:39:05;19.30;99.00
52413;DHT22;38339;53.234;6.578;2022-08-05T14:41:31;19.40;98.90
52413;DHT22;38339;53.234;6.578;2022-08-05T14:43:58;19.40;97.20
52413;DHT22;38339;53.234;6.578;2022-08-05T14:46:25;19.40;97.20
52413;DHT22;38339;53.234;6.578;2022-08-05T14:48:51;19.30;97.20
52413;DHT22;38339;53.234;6.578;2022-08-05T14:51:17;19.40;96.80
52413;DHT22;38339;53.234;6.578;2022-08-05T14:53:44;19.40;97.20
52413;DHT22;38339;53.234;6.578;2022-08-05T14:56:09;19.50;97.50
52413;DHT22;38339;53.234;6.578;2022-08-05T14:58:35;19.50;97.30
52413;DHT22;38339;53.234;6.578;2022-08-05T15:01:01;19.60;97.30
52413;DHT22;38339;53.234;6.578;2022-08-05T15:03:30;19.60;97.60
52413;DHT22;38339;53.234;6.578;2022-08-05T15:05:56;19.70;97.10
52413;DHT22;38339;53.234;6.578;2022-08-05T15:08:22;19.90;96.70
52413;DHT22;38339;53.234;6.578;2022-08-05T15:10:49;20.00;97.10
52413;DHT22;38339;53.234;6.578;2022-08-05T15:13:15;20.20;96.60
52413;DHT22;38339;53.234;6.578;2022-08-05T15:15:40;20.10;95.80
52413;DHT22;38339;53.234;6.578;2022-08-05T15:18:06;20.10;95.70
52413;DHT22;38339;53.234;6.578;2022-08-05T15:20:32;20.10;95.80
52413;DHT22;38339;53.234;6.578;2022-08-05T15:23:06;20.20;94.60
52413;DHT22;38339;53.234;6.578;2022-08-05T15:25:38;20.40;94.40
52413;DHT22;38339;53.234;6.578;2022-08-05T15:28:05;20.40;94.10
52413;DHT22;38339;53.234;6.578;2022-08-05T15:30:32;20.40;93.40
52413;DHT22;38339;53.234;6.578;2022-08-05T15:32:59;20.40;93.10
52413;DHT22;38339;53.234;6.578;2022-08-05T15:35:27;21.00;93.10
52413;DHT22;38339;53.234;6.578;2022-08-05T15:37:53;22.10;93.50
52413;DHT22;38339;53.234;6.578;2022-08-05T15:40:19;22.80;93.20
52413;DHT22;38339;53.234;6.578;2022-08-05T15:42:45;23.50;92.80
52413;DHT22;38339;53.234;6.578;2022-08-05T15:45:11;24.00;92.20
52413;DHT22;38339;53.234;6.578;2022-08-05T15:47:38;24.70;91.90
52413;DHT22;38339;53.234;6.578;2022-08-05T15:50:04;25.00;91.20
52413;DHT22;38339;53.234;6.578;2022-08-05T15:52:30;25.00;90.80
52413;DHT22;38339;53.234;6.578;2022-08-05T15:54:58;24.60;91.10
52413;DHT22;38339;53.234;6.578;2022-08-05T15:57:24;23.50;91.20
52413;DHT22;38339;53.234;6.578;2022-08-05T15:59:50;22.30;92.10
52413;DHT22;38339;53.234;6.578;2022-08-05T16:02:15;22.00;93.00
52413;DHT22;38339;53.234;6.578;2022-08-05T16:04:41;22.80;92.80
52413;DHT22;38339;53.234;6.578;2022-08-05T16:07:07;23.50;91.90
52413;DHT22;38339;53.234;6.578;2022-08-05T16:09:33;23.40;91.40
52413;DHT22;38339;53.234;6.578;2022-08-05T16:11:59;22.70;92.40
52413;DHT22;38339;53.234;6.578;2022-08-05T16:14:25;23.10;92.60
52413;DHT22;38339;53.234;6.578;2022-08-05T16:16:50;23.90;92.10